Pedhoulas Trader — C4JM2 — position and weather

sailwx.info

Track history (hours):
 
Tides and Currents Weather Stations Pressure Air Temp Water Temp Dewpoint Dewpoint Depression Visibility Wind Speed Wind Dir Waves Ship Positions

Pedhoulas Trader

Last reported at 2014-Sep-28 21:33 UTC. Time now 2014-Oct-02 14:37 UTC.
Position N 34°05' E 132°39'.

Length 229 m; draft 11.9 m.

Type: Cargo ship. MMSI: 210073000.

Date/timePositionNaut miles runAvg speedWind from/ knotsBaromVisibWave heightAir tempDewpointWater temp
2014-Sep-28 21:33N 34°05' E 132°39'10 9.5
2014-Sep-28 20:33N 34°02' E 132°27'1110.9
2014-Sep-28 19:33N 34°11' E 132°20'10 9.8
2014-Sep-28 18:33N 34°18' E 132°29'5 4.7
2014-Sep-28 17:33N 34°14' E 132°31'0 0.0
2014-Sep-28 16:33N 34°14' E 132°31'0 0.0
2014-Sep-28 15:33N 34°14' E 132°31'0 0.0
2014-Sep-28 14:33N 34°14' E 132°31'0 0.0
2014-Sep-28 13:33N 34°14' E 132°31'0 0.0
2014-Sep-28 12:33N 34°14' E 132°31'0 0.1
2014-Sep-28 11:33N 34°14' E 132°31'0 0.1
2014-Sep-28 10:33N 34°14' E 132°31'0 0.1
2014-Sep-28 09:33N 34°14' E 132°31'0 0.0
2014-Sep-28 08:30N 34°14' E 132°31'0 0.1
2014-Sep-28 07:33N 34°14' E 132°31'0 0.0
2014-Sep-28 06:33N 34°14' E 132°31'0 0.0
2014-Sep-28 05:33N 34°14' E 132°31'0 0.0
2014-Sep-28 04:33N 34°14' E 132°31'0 0.2
2014-Sep-28 03:33N 34°14' E 132°31'0 0.1
2014-Sep-28 02:33N 34°14' E 132°31'0 0.0
2014-Sep-28 01:33N 34°14' E 132°31'0 0.0
2014-Sep-28 00:33N 34°14' E 132°31'0 0.0
2014-Sep-27 23:33N 34°14' E 132°31'0 0.0
2014-Sep-27 22:33N 34°14' E 132°31'0 0.0
2014-Sep-27 21:33N 34°14' E 132°31'0 0.0
2014-Sep-27 20:30N 34°14' E 132°31'0 0.1
2014-Sep-27 19:33N 34°14' E 132°31'0 0.0
2014-Sep-27 18:33N 34°14' E 132°31'0 0.0
2014-Sep-27 17:33N 34°14' E 132°31'0 0.1
2014-Sep-27 16:33N 34°14' E 132°31'0 0.1
2014-Sep-27 15:33N 34°14' E 132°31'0 0.0
2014-Sep-27 14:33N 34°14' E 132°31'0 0.1
2014-Sep-27 13:33N 34°14' E 132°31'0 0.0
2014-Sep-27 12:33N 34°14' E 132°31'0 0.1
2014-Sep-27 11:33N 34°14' E 132°31'0 0.1
2014-Sep-27 10:33N 34°14' E 132°31'0 0.1
2014-Sep-27 09:30N 34°14' E 132°31'0 0.1
2014-Sep-27 08:33N 34°14' E 132°31'0 0.0
2014-Sep-27 07:33N 34°14' E 132°31'0 0.0
2014-Sep-27 06:33N 34°14' E 132°31'0 0.1
2014-Sep-27 05:30N 34°14' E 132°31'0 0.1
2014-Sep-27 04:33N 34°14' E 132°31'1 0.6
2014-Sep-27 03:33N 34°13' E 132°32'0 0.4
2014-Sep-27 02:32N 34°13' E 132°32'0 0.0
2014-Sep-27 01:32N 34°13' E 132°32'0 0.0
2014-Sep-27 00:32N 34°13' E 132°32'0 0.0
2014-Sep-26 23:29N 34°13' E 132°32'0 0.0
2014-Sep-26 22:32N 34°13' E 132°32'0 0.0
2014-Sep-26 21:32N 34°13' E 132°32'0 0.0
2014-Sep-26 20:32N 34°13' E 132°32'0 0.0
2014-Sep-26 19:32N 34°13' E 132°32'0 0.0
2014-Sep-26 18:32N 34°13' E 132°32'0 0.0
2014-Sep-26 17:32N 34°13' E 132°32'0 0.0
2014-Sep-26 16:32N 34°13' E 132°32'0 0.0
2014-Sep-26 15:32N 34°13' E 132°32'0 0.0
2014-Sep-26 14:32N 34°13' E 132°32'0 0.0
2014-Sep-26 13:26N 34°13' E 132°32'0 0.0
2014-Sep-26 12:32N 34°13' E 132°32'0 0.0
2014-Sep-26 11:32N 34°13' E 132°32'0 0.0
2014-Sep-26 10:29N 34°13' E 132°32'0 0.0
2014-Sep-26 09:29N 34°13' E 132°32'0 0.0
2014-Sep-26 08:32N 34°13' E 132°32'0 0.0
2014-Sep-26 07:32N 34°13' E 132°32'0 0.0
2014-Sep-26 06:32N 34°13' E 132°32'0 0.0
2014-Sep-26 05:32N 34°13' E 132°32'0 0.0
2014-Sep-26 04:32N 34°13' E 132°32'0 0.0
2014-Sep-26 03:29N 34°13' E 132°32'0 0.0
2014-Sep-26 02:32N 34°13' E 132°32'0 0.0
2014-Sep-26 01:32N 34°13' E 132°32'0 0.0
2014-Sep-26 00:29N 34°13' E 132°32'0 0.0
2014-Sep-25 23:33N 34°13' E 132°32'1 1.2
2014-Sep-25 22:31N 34°13' E 132°30'0 0.0
2014-Sep-25 21:28N 34°13' E 132°30'0 0.0
2014-Sep-25 20:22N 34°13' E 132°30'0 0.0
2014-Sep-25 19:31N 34°13' E 132°30'0 0.0
2014-Sep-25 18:31N 34°13' E 132°30'0 0.0
2014-Sep-25 17:31N 34°13' E 132°30'0 0.0
2014-Sep-25 16:31N 34°13' E 132°30'0 0.0
2014-Sep-25 15:28N 34°13' E 132°30'0 0.0
2014-Sep-25 14:28N 34°13' E 132°30'0 0.1
2014-Sep-25 13:31N 34°13' E 132°30'0 0.0
2014-Sep-25 12:31N 34°13' E 132°30'0 0.0
2014-Sep-25 11:31N 34°13' E 132°30'0 0.0
2014-Sep-25 10:31N 34°13' E 132°30'0 0.0
2014-Sep-25 09:28N 34°13' E 132°30'0 0.0
2014-Sep-25 07:31N 34°13' E 132°30'0 0.0
2014-Sep-25 06:22N 34°13' E 132°30'0 0.0
2014-Sep-25 04:31N 34°13' E 132°30'0 0.0
2014-Sep-25 02:25N 34°13' E 132°30'0 0.1
2014-Sep-25 01:25N 34°13' E 132°30'0 0.0
2014-Sep-25 00:22N 34°13' E 132°30'0 0.1
2014-Sep-24 23:25N 34°13' E 132°30'0 0.1
2014-Sep-24 22:28N 34°13' E 132°30'1 1.2
2014-Sep-24 21:33N 34°13' E 132°32'6 6.1
2014-Sep-24 20:33N 34°18' E 132°28'1010.1
2014-Sep-24 19:33N 34°09' E 132°22'1311.9
2014-Sep-24 18:27N 34°00' E 132°34'9 9.6
2014-Sep-24 17:33N 33°52' E 132°31'1110.4
2014-Sep-24 16:29N 33°44' E 132°22'  
Track history (hours):
 
Tides and Currents Weather Stations Pressure Air Temp Water Temp Dewpoint Dewpoint Depression Visibility Wind Speed Wind Dir Waves Ship Positions

Pedhoulas Trader

Last reported at 2014-Sep-28 21:33 UTC. Time now 2014-Oct-02 14:37 UTC.
Position N 34°05' E 132°39'.

Length 229 m; draft 11.9 m.

Type: Cargo ship. MMSI: 210073000.

Date/timePositionNaut miles runAvg speedWind from/ knotsBaromVisibWave heightAir tempDewpointWater temp
2014-Sep-28 21:33N 34°05' E 132°39'10 9.5
2014-Sep-28 20:33N 34°02' E 132°27'1110.9
2014-Sep-28 19:33N 34°11' E 132°20'10 9.8
2014-Sep-28 18:33N 34°18' E 132°29'5 4.7
2014-Sep-28 17:33N 34°14' E 132°31'0 0.0
2014-Sep-28 16:33N 34°14' E 132°31'0 0.0
2014-Sep-28 15:33N 34°14' E 132°31'0 0.0
2014-Sep-28 14:33N 34°14' E 132°31'0 0.0
2014-Sep-28 13:33N 34°14' E 132°31'0 0.0
2014-Sep-28 12:33N 34°14' E 132°31'0 0.1
2014-Sep-28 11:33N 34°14' E 132°31'0 0.1
2014-Sep-28 10:33N 34°14' E 132°31'0 0.1
2014-Sep-28 09:33N 34°14' E 132°31'0 0.0
2014-Sep-28 08:30N 34°14' E 132°31'0 0.1
2014-Sep-28 07:33N 34°14' E 132°31'0 0.0
2014-Sep-28 06:33N 34°14' E 132°31'0 0.0
2014-Sep-28 05:33N 34°14' E 132°31'0 0.0
2014-Sep-28 04:33N 34°14' E 132°31'0 0.2
2014-Sep-28 03:33N 34°14' E 132°31'0 0.1
2014-Sep-28 02:33N 34°14' E 132°31'0 0.0
2014-Sep-28 01:33N 34°14' E 132°31'0 0.0
2014-Sep-28 00:33N 34°14' E 132°31'0 0.0
2014-Sep-27 23:33N 34°14' E 132°31'0 0.0
2014-Sep-27 22:33N 34°14' E 132°31'0 0.0
2014-Sep-27 21:33N 34°14' E 132°31'0 0.0
2014-Sep-27 20:30N 34°14' E 132°31'0 0.1
2014-Sep-27 19:33N 34°14' E 132°31'0 0.0
2014-Sep-27 18:33N 34°14' E 132°31'0 0.0
2014-Sep-27 17:33N 34°14' E 132°31'0 0.1
2014-Sep-27 16:33N 34°14' E 132°31'0 0.1
2014-Sep-27 15:33N 34°14' E 132°31'0 0.0
2014-Sep-27 14:33N 34°14' E 132°31'0 0.1
2014-Sep-27 13:33N 34°14' E 132°31'0 0.0
2014-Sep-27 12:33N 34°14' E 132°31'0 0.1
2014-Sep-27 11:33N 34°14' E 132°31'0 0.1
2014-Sep-27 10:33N 34°14' E 132°31'0 0.1
2014-Sep-27 09:30N 34°14' E 132°31'0 0.1
2014-Sep-27 08:33N 34°14' E 132°31'0 0.0
2014-Sep-27 07:33N 34°14' E 132°31'0 0.0
2014-Sep-27 06:33N 34°14' E 132°31'0 0.1
2014-Sep-27 05:30N 34°14' E 132°31'0 0.1
2014-Sep-27 04:33N 34°14' E 132°31'1 0.6
2014-Sep-27 03:33N 34°13' E 132°32'0 0.4
2014-Sep-27 02:32N 34°13' E 132°32'0 0.0
2014-Sep-27 01:32N 34°13' E 132°32'0 0.0
2014-Sep-27 00:32N 34°13' E 132°32'0 0.0
2014-Sep-26 23:29N 34°13' E 132°32'0 0.0
2014-Sep-26 22:32N 34°13' E 132°32'0 0.0
2014-Sep-26 21:32N 34°13' E 132°32'0 0.0
2014-Sep-26 20:32N 34°13' E 132°32'0 0.0
2014-Sep-26 19:32N 34°13' E 132°32'0 0.0
2014-Sep-26 18:32N 34°13' E 132°32'0 0.0
2014-Sep-26 17:32N 34°13' E 132°32'0 0.0
2014-Sep-26 16:32N 34°13' E 132°32'0 0.0
2014-Sep-26 15:32N 34°13' E 132°32'0 0.0
2014-Sep-26 14:32N 34°13' E 132°32'0 0.0
2014-Sep-26 13:26N 34°13' E 132°32'0 0.0
2014-Sep-26 12:32N 34°13' E 132°32'0 0.0
2014-Sep-26 11:32N 34°13' E 132°32'0 0.0
2014-Sep-26 10:29N 34°13' E 132°32'0 0.0
2014-Sep-26 09:29N 34°13' E 132°32'0 0.0
2014-Sep-26 08:32N 34°13' E 132°32'0 0.0
2014-Sep-26 07:32N 34°13' E 132°32'0 0.0
2014-Sep-26 06:32N 34°13' E 132°32'0 0.0
2014-Sep-26 05:32N 34°13' E 132°32'0 0.0
2014-Sep-26 04:32N 34°13' E 132°32'0 0.0
2014-Sep-26 03:29N 34°13' E 132°32'0 0.0
2014-Sep-26 02:32N 34°13' E 132°32'0 0.0
2014-Sep-26 01:32N 34°13' E 132°32'0 0.0
2014-Sep-26 00:29N 34°13' E 132°32'0 0.0
2014-Sep-25 23:33N 34°13' E 132°32'1 1.2
2014-Sep-25 22:31N 34°13' E 132°30'0 0.0
2014-Sep-25 21:28N 34°13' E 132°30'0 0.0
2014-Sep-25 20:22N 34°13' E 132°30'0 0.0
2014-Sep-25 19:31N 34°13' E 132°30'0 0.0
2014-Sep-25 18:31N 34°13' E 132°30'0 0.0
2014-Sep-25 17:31N 34°13' E 132°30'0 0.0
2014-Sep-25 16:31N 34°13' E 132°30'0 0.0
2014-Sep-25 15:28N 34°13' E 132°30'0 0.0
2014-Sep-25 14:28N 34°13' E 132°30'0 0.1
2014-Sep-25 13:31N 34°13' E 132°30'0 0.0
2014-Sep-25 12:31N 34°13' E 132°30'0 0.0
2014-Sep-25 11:31N 34°13' E 132°30'0 0.0
2014-Sep-25 10:31N 34°13' E 132°30'0 0.0
2014-Sep-25 09:28N 34°13' E 132°30'0 0.0
2014-Sep-25 07:31N 34°13' E 132°30'0 0.0
2014-Sep-25 06:22N 34°13' E 132°30'0 0.0
2014-Sep-25 04:31N 34°13' E 132°30'0 0.0
2014-Sep-25 02:25N 34°13' E 132°30'0 0.1
2014-Sep-25 01:25N 34°13' E 132°30'0 0.0
2014-Sep-25 00:22N 34°13' E 132°30'0 0.1
2014-Sep-24 23:25N 34°13' E 132°30'0 0.1
2014-Sep-24 22:28N 34°13' E 132°30'1 1.2
2014-Sep-24 21:33N 34°13' E 132°32'6 6.1
2014-Sep-24 20:33N 34°18' E 132°28'1010.1
2014-Sep-24 19:33N 34°09' E 132°22'1311.9
2014-Sep-24 18:27N 34°00' E 132°34'9 9.6
2014-Sep-24 17:33N 33°52' E 132°31'1110.4
2014-Sep-24 16:29N 33°44' E 132°22'  

Dump ship's entire track history